sensor_id;sensor_type;location;lat;lon;timestamp;temperature;humidity
5850;DHT22;2951;47.712;9.400;2022-12-07T00:01:44;3.00;99.90
5850;DHT22;2951;47.712;9.400;2022-12-07T00:04:12;3.00;99.90
5850;DHT22;2951;47.712;9.400;2022-12-07T00:06:43;3.00;99.90
5850;DHT22;2951;47.712;9.400;2022-12-07T00:09:10;3.00;99.90
5850;DHT22;2951;47.712;9.400;2022-12-07T00:11:37;3.00;99.90
5850;DHT22;2951;47.712;9.400;2022-12-07T00:14:08;2.90;99.90
5850;DHT22;2951;47.712;9.400;2022-12-07T00:16:36;3.00;99.90
5850;DHT22;2951;47.712;9.400;2022-12-07T00:19:03;3.00;99.90
5850;DHT22;2951;47.712;9.400;2022-12-07T00:21:33;2.90;99.90
5850;DHT22;2951;47.712;9.400;2022-12-07T00:24:01;3.00;99.90
5850;DHT22;2951;47.712;9.400;2022-12-07T00:26:33;2.90;99.90
5850;DHT22;2951;47.712;9.400;2022-12-07T00:29:04;2.90;99.90
5850;DHT22;2951;47.712;9.400;2022-12-07T00:31:34;2.90;99.90
5850;DHT22;2951;47.712;9.400;2022-12-07T00:34:02;2.90;99.90
5850;DHT22;2951;47.712;9.400;2022-12-07T00:36:28;2.90;99.90
5850;DHT22;2951;47.712;9.400;2022-12-07T00:38:57;2.90;99.90
5850;DHT22;2951;47.712;9.400;2022-12-07T00:41:24;2.90;99.90
5850;DHT22;2951;47.712;9.400;2022-12-07T00:43:51;3.00;99.90
5850;DHT22;2951;47.712;9.400;2022-12-07T00:46:19;2.90;99.90
5850;DHT22;2951;47.712;9.400;2022-12-07T00:48:46;2.90;99.90
5850;DHT22;2951;47.712;9.400;2022-12-07T00:51:14;2.90;99.90
5850;DHT22;2951;47.712;9.400;2022-12-07T00:53:40;2.90;99.90
5850;DHT22;2951;47.712;9.400;2022-12-07T00:56:08;2.90;99.90
5850;DHT22;2951;47.712;9.400;2022-12-07T00:58:35;2.80;99.90
5850;DHT22;2951;47.712;9.400;2022-12-07T01:01:02;2.90;99.90
5850;DHT22;2951;47.712;9.400;2022-12-07T01:03:29;2.90;99.90
5850;DHT22;2951;47.712;9.400;2022-12-07T01:05:56;3.00;99.90
5850;DHT22;2951;47.712;9.400;2022-12-07T01:08:24;2.90;99.90
5850;DHT22;2951;47.712;9.400;2022-12-07T01:11:05;2.80;99.90
5850;DHT22;2951;47.712;9.400;2022-12-07T01:13:33;2.80;99.90
5850;DHT22;2951;47.712;9.400;2022-12-07T01:16:01;2.80;99.90
5850;DHT22;2951;47.712;9.400;2022-12-07T01:18:28;2.90;99.90
5850;DHT22;2951;47.712;9.400;2022-12-07T01:20:59;2.90;99.90
5850;DHT22;2951;47.712;9.400;2022-12-07T01:23:26;2.90;99.90
5850;DHT22;2951;47.712;9.400;2022-12-07T01:25:57;2.80;99.90
5850;DHT22;2951;47.712;9.400;2022-12-07T01:28:24;2.70;99.90
5850;DHT22;2951;47.712;9.400;2022-12-07T01:31:11;2.70;99.90
5850;DHT22;2951;47.712;9.400;2022-12-07T01:33:38;2.70;99.90
5850;DHT22;2951;47.712;9.400;2022-12-07T01:36:13;2.70;99.90
5850;DHT22;2951;47.712;9.400;2022-12-07T01:38:40;2.60;99.90
5850;DHT22;2951;47.712;9.400;2022-12-07T01:41:07;2.70;99.90
5850;DHT22;2951;47.712;9.400;2022-12-07T01:43:33;2.60;99.90
5850;DHT22;2951;47.712;9.400;2022-12-07T01:46:00;2.60;99.90
5850;DHT22;2951;47.712;9.400;2022-12-07T01:48:28;2.60;99.90
5850;DHT22;2951;47.712;9.400;2022-12-07T01:50:57;2.70;99.90
5850;DHT22;2951;47.712;9.400;2022-12-07T01:53:26;2.70;99.90
5850;DHT22;2951;47.712;9.400;2022-12-07T01:55:54;2.80;99.90
5850;DHT22;2951;47.712;9.400;2022-12-07T01:58:22;2.90;99.90
5850;DHT22;2951;47.712;9.400;2022-12-07T02:00:49;2.80;99.90
5850;DHT22;2951;47.712;9.400;2022-12-07T02:03:20;2.80;99.90
5850;DHT22;2951;47.712;9.400;2022-12-07T02:05:48;2.80;99.90
5850;DHT22;2951;47.712;9.400;2022-12-07T02:08:15;2.80;99.90
5850;DHT22;2951;47.712;9.400;2022-12-07T02:10:43;2.70;99.90
5850;DHT22;2951;47.712;9.400;2022-12-07T02:13:11;2.70;99.90
5850;DHT22;2951;47.712;9.400;2022-12-07T02:20:54;2.90;99.90
5850;DHT22;2951;47.712;9.400;2022-12-07T02:28:37;3.00;99.90
5850;DHT22;2951;47.712;9.400;2022-12-07T02:31:06;3.00;99.90
5850;DHT22;2951;47.712;9.400;2022-12-07T02:33:40;2.90;99.90
5850;DHT22;2951;47.712;9.400;2022-12-07T02:36:10;2.80;99.90
5850;DHT22;2951;47.712;9.400;2022-12-07T02:41:12;2.80;99.90
5850;DHT22;2951;47.712;9.400;2022-12-07T02:43:41;2.90;99.90
5850;DHT22;2951;47.712;9.400;2022-12-07T02:46:10;2.80;99.90
5850;DHT22;2951;47.712;9.400;2022-12-07T02:48:38;2.80;99.90
5850;DHT22;2951;47.712;9.400;2022-12-07T02:51:05;2.70;99.90
5850;DHT22;2951;47.712;9.400;2022-12-07T02:53:36;2.70;99.90
5850;DHT22;2951;47.712;9.400;2022-12-07T02:57:07;2.70;99.90
5850;DHT22;2951;47.712;9.400;2022-12-07T02:59:02;2.70;99.90
5850;DHT22;2951;47.712;9.400;2022-12-07T03:01:41;2.70;99.90
5850;DHT22;2951;47.712;9.400;2022-12-07T03:06:49;2.70;99.90
5850;DHT22;2951;47.712;9.400;2022-12-07T03:09:30;2.70;99.90
5850;DHT22;2951;47.712;9.400;2022-12-07T03:12:17;2.70;99.90
5850;DHT22;2951;47.712;9.400;2022-12-07T03:14:50;2.80;99.90
5850;DHT22;2951;47.712;9.400;2022-12-07T03:17:26;2.80;99.90
5850;DHT22;2951;47.712;9.400;2022-12-07T03:19:55;2.70;99.90
5850;DHT22;2951;47.712;9.400;2022-12-07T03:22:23;2.70;99.90
5850;DHT22;2951;47.712;9.400;2022-12-07T03:24:51;2.70;99.90
5850;DHT22;2951;47.712;9.400;2022-12-07T03:27:20;2.70;99.90
5850;DHT22;2951;47.712;9.400;2022-12-07T03:29:49;2.70;99.90
5850;DHT22;2951;47.712;9.400;2022-12-07T03:32:23;2.70;99.90
5850;DHT22;2951;47.712;9.400;2022-12-07T03:37:20;2.70;99.90
5850;DHT22;2951;47.712;9.400;2022-12-07T03:40:02;2.70;99.90
5850;DHT22;2951;47.712;9.400;2022-12-07T03:42:30;2.80;99.90
5850;DHT22;2951;47.712;9.400;2022-12-07T03:44:57;2.80;99.90
5850;DHT22;2951;47.712;9.400;2022-12-07T03:49:52;2.80;99.90
5850;DHT22;2951;47.712;9.400;2022-12-07T03:57:35;2.80;99.90
5850;DHT22;2951;47.712;9.400;2022-12-07T04:00:03;2.80;99.90
5850;DHT22;2951;47.712;9.400;2022-12-07T04:02:30;2.80;99.90
5850;DHT22;2951;47.712;9.400;2022-12-07T04:04:58;2.80;99.90
5850;DHT22;2951;47.712;9.400;2022-12-07T04:07:25;2.80;99.90
5850;DHT22;2951;47.712;9.400;2022-12-07T04:09:51;2.80;99.90
5850;DHT22;2951;47.712;9.400;2022-12-07T04:12:21;2.80;99.90
5850;DHT22;2951;47.712;9.400;2022-12-07T04:14:48;2.80;99.90
5850;DHT22;2951;47.712;9.400;2022-12-07T04:17:14;2.80;99.90
5850;DHT22;2951;47.712;9.400;2022-12-07T04:19:41;2.80;99.90
5850;DHT22;2951;47.712;9.400;2022-12-07T04:22:08;2.80;99.90
5850;DHT22;2951;47.712;9.400;2022-12-07T04:24:34;2.80;99.90
5850;DHT22;2951;47.712;9.400;2022-12-07T04:27:01;2.90;99.90
5850;DHT22;2951;47.712;9.400;2022-12-07T04:29:28;2.80;99.90
5850;DHT22;2951;47.712;9.400;2022-12-07T04:31:54;2.80;99.90
5850;DHT22;2951;47.712;9.400;2022-12-07T04:34:21;2.90;99.90
5850;DHT22;2951;47.712;9.400;2022-12-07T04:36:48;2.90;99.90
5850;DHT22;2951;47.712;9.400;2022-12-07T04:39:22;2.90;99.90
5850;DHT22;2951;47.712;9.400;2022-12-07T04:41:49;2.80;99.90
5850;DHT22;2951;47.712;9.400;2022-12-07T04:44:16;2.80;99.90
5850;DHT22;2951;47.712;9.400;2022-12-07T04:46:43;2.90;99.90
5850;DHT22;2951;47.712;9.400;2022-12-07T04:49:10;2.80;99.90
5850;DHT22;2951;47.712;9.400;2022-12-07T04:51:37;2.80;99.90
5850;DHT22;2951;47.712;9.400;2022-12-07T04:54:04;2.80;99.90
5850;DHT22;2951;47.712;9.400;2022-12-07T04:56:31;2.80;99.90
5850;DHT22;2951;47.712;9.400;2022-12-07T04:58:58;2.80;99.90
5850;DHT22;2951;47.712;9.400;2022-12-07T05:01:24;2.80;99.90
5850;DHT22;2951;47.712;9.400;2022-12-07T05:03:51;2.80;99.90
5850;DHT22;2951;47.712;9.400;2022-12-07T05:06:18;2.70;99.90
5850;DHT22;2951;47.712;9.400;2022-12-07T05:08:45;2.70;99.90
5850;DHT22;2951;47.712;9.400;2022-12-07T05:11:12;2.70;99.90
5850;DHT22;2951;47.712;9.400;2022-12-07T05:13:57;2.70;99.90
5850;DHT22;2951;47.712;9.400;2022-12-07T05:16:24;2.70;99.90
5850;DHT22;2951;47.712;9.400;2022-12-07T05:18:51;2.70;99.90
5850;DHT22;2951;47.712;9.400;2022-12-07T05:21:18;2.80;99.90
5850;DHT22;2951;47.712;9.400;2022-12-07T05:23:44;2.80;99.90
5850;DHT22;2951;47.712;9.400;2022-12-07T05:26:11;2.80;99.90
5850;DHT22;2951;47.712;9.400;2022-12-07T05:28:38;2.80;99.90
5850;DHT22;2951;47.712;9.400;2022-12-07T05:31:04;2.80;99.90
5850;DHT22;2951;47.712;9.400;2022-12-07T05:33:31;2.80;99.90
5850;DHT22;2951;47.712;9.400;2022-12-07T05:35:58;2.70;99.90
5850;DHT22;2951;47.712;9.400;2022-12-07T05:38:25;2.70;99.90
5850;DHT22;2951;47.712;9.400;2022-12-07T05:40:51;2.70;99.90
5850;DHT22;2951;47.712;9.400;2022-12-07T05:43:18;2.70;99.90
5850;DHT22;2951;47.712;9.400;2022-12-07T05:45:44;2.70;99.90
5850;DHT22;2951;47.712;9.400;2022-12-07T05:48:11;2.70;99.90
5850;DHT22;2951;47.712;9.400;2022-12-07T05:50:38;2.60;99.90
5850;DHT22;2951;47.712;9.400;2022-12-07T05:53:04;2.60;99.90
5850;DHT22;2951;47.712;9.400;2022-12-07T05:55:31;2.70;99.90
5850;DHT22;2951;47.712;9.400;2022-12-07T05:57:57;2.70;99.90
5850;DHT22;2951;47.712;9.400;2022-12-07T06:00:43;2.80;99.90
5850;DHT22;2951;47.712;9.400;2022-12-07T06:03:14;2.80;99.90
5850;DHT22;2951;47.712;9.400;2022-12-07T06:05:41;2.80;99.90
5850;DHT22;2951;47.712;9.400;2022-12-07T06:08:08;2.90;99.90
5850;DHT22;2951;47.712;9.400;2022-12-07T06:10:35;2.80;99.90
5850;DHT22;2951;47.712;9.400;2022-12-07T06:13:01;2.80;99.90
5850;DHT22;2951;47.712;9.400;2022-12-07T06:15:28;2.80;99.90
5850;DHT22;2951;47.712;9.400;2022-12-07T06:17:55;2.80;99.90
5850;DHT22;2951;47.712;9.400;2022-12-07T06:20:21;2.90;99.90
5850;DHT22;2951;47.712;9.400;2022-12-07T06:22:48;2.90;99.90
5850;DHT22;2951;47.712;9.400;2022-12-07T06:25:15;2.90;99.90
5850;DHT22;2951;47.712;9.400;2022-12-07T06:27:41;3.00;99.90
5850;DHT22;2951;47.712;9.400;2022-12-07T06:30:08;3.00;99.90
5850;DHT22;2951;47.712;9.400;2022-12-07T06:32:36;3.00;99.90
5850;DHT22;2951;47.712;9.400;2022-12-07T06:35:03;3.00;99.90
5850;DHT22;2951;47.712;9.400;2022-12-07T06:37:30;3.00;99.90
5850;DHT22;2951;47.712;9.400;2022-12-07T06:39:56;3.00;99.90
5850;DHT22;2951;47.712;9.400;2022-12-07T06:42:23;3.10;99.90
5850;DHT22;2951;47.712;9.400;2022-12-07T06:44:49;3.00;99.90
5850;DHT22;2951;47.712;9.400;2022-12-07T06:47:16;3.10;99.90
5850;DHT22;2951;47.712;9.400;2022-12-07T06:50:03;3.10;99.90
5850;DHT22;2951;47.712;9.400;2022-12-07T06:52:30;3.10;99.90
5850;DHT22;2951;47.712;9.400;2022-12-07T06:54:57;3.00;99.90
5850;DHT22;2951;47.712;9.400;2022-12-07T06:57:25;3.00;99.90
5850;DHT22;2951;47.712;9.400;2022-12-07T06:59:51;3.00;99.90
5850;DHT22;2951;47.712;9.400;2022-12-07T07:02:18;3.00;99.90
5850;DHT22;2951;47.712;9.400;2022-12-07T07:04:45;3.00;99.90
5850;DHT22;2951;47.712;9.400;2022-12-07T07:07:11;3.00;99.90
5850;DHT22;2951;47.712;9.400;2022-12-07T07:09:38;3.00;99.90
5850;DHT22;2951;47.712;9.400;2022-12-07T07:12:05;3.00;99.90
5850;DHT22;2951;47.712;9.400;2022-12-07T07:14:32;2.90;99.90
5850;DHT22;2951;47.712;9.400;2022-12-07T07:16:59;3.00;99.90
5850;DHT22;2951;47.712;9.400;2022-12-07T07:19:26;3.00;99.90
5850;DHT22;2951;47.712;9.400;2022-12-07T07:21:52;3.00;99.90
5850;DHT22;2951;47.712;9.400;2022-12-07T07:24:19;3.10;99.90
5850;DHT22;2951;47.712;9.400;2022-12-07T07:26:45;3.10;99.90
5850;DHT22;2951;47.712;9.400;2022-12-07T07:29:12;3.00;99.90
5850;DHT22;2951;47.712;9.400;2022-12-07T07:31:39;3.00;99.90
5850;DHT22;2951;47.712;9.400;2022-12-07T07:34:05;3.10;99.90
5850;DHT22;2951;47.712;9.400;2022-12-07T07:36:32;3.00;99.90
5850;DHT22;2951;47.712;9.400;2022-12-07T07:38:59;3.00;99.90
5850;DHT22;2951;47.712;9.400;2022-12-07T07:41:25;3.10;99.90
5850;DHT22;2951;47.712;9.400;2022-12-07T07:43:52;3.10;99.90
5850;DHT22;2951;47.712;9.400;2022-12-07T07:46:19;3.00;99.90
5850;DHT22;2951;47.712;9.400;2022-12-07T07:48:45;2.90;99.90
5850;DHT22;2951;47.712;9.400;2022-12-07T07:51:12;2.90;99.90
5850;DHT22;2951;47.712;9.400;2022-12-07T07:53:39;3.00;99.90
5850;DHT22;2951;47.712;9.400;2022-12-07T07:56:05;2.90;99.90
5850;DHT22;2951;47.712;9.400;2022-12-07T07:58:32;2.90;99.90
5850;DHT22;2951;47.712;9.400;2022-12-07T08:01:05;2.90;99.90
5850;DHT22;2951;47.712;9.400;2022-12-07T08:03:32;2.80;99.90
5850;DHT22;2951;47.712;9.400;2022-12-07T08:05:59;2.90;99.90
5850;DHT22;2951;47.712;9.400;2022-12-07T08:08:26;3.00;99.90
5850;DHT22;2951;47.712;9.400;2022-12-07T08:10:52;3.00;99.90
5850;DHT22;2951;47.712;9.400;2022-12-07T08:13:19;3.10;99.90
5850;DHT22;2951;47.712;9.400;2022-12-07T08:15:49;3.10;99.90
5850;DHT22;2951;47.712;9.400;2022-12-07T08:18:15;3.20;99.90
5850;DHT22;2951;47.712;9.400;2022-12-07T08:20:42;3.30;99.90
5850;DHT22;2951;47.712;9.400;2022-12-07T08:23:09;3.40;99.90
5850;DHT22;2951;47.712;9.400;2022-12-07T08:25:36;3.50;99.90
5850;DHT22;2951;47.712;9.400;2022-12-07T08:28:03;3.50;99.90
5850;DHT22;2951;47.712;9.400;2022-12-07T08:30:30;3.60;99.90
5850;DHT22;2951;47.712;9.400;2022-12-07T08:32:57;3.60;99.90
5850;DHT22;2951;47.712;9.400;2022-12-07T08:35:24;3.60;99.90
5850;DHT22;2951;47.712;9.400;2022-12-07T08:37:50;3.60;99.90
5850;DHT22;2951;47.712;9.400;2022-12-07T08:40:17;3.70;99.90
5850;DHT22;2951;47.712;9.400;2022-12-07T08:42:49;3.70;99.90
5850;DHT22;2951;47.712;9.400;2022-12-07T08:45:16;3.70;99.90
5850;DHT22;2951;47.712;9.400;2022-12-07T08:48:22;3.70;99.90
5850;DHT22;2951;47.712;9.400;2022-12-07T08:50:44;3.70;99.90
5850;DHT22;2951;47.712;9.400;2022-12-07T08:53:15;3.70;99.90
5850;DHT22;2951;47.712;9.400;2022-12-07T08:55:41;3.70;99.90
5850;DHT22;2951;47.712;9.400;2022-12-07T08:58:09;3.70;99.90
5850;DHT22;2951;47.712;9.400;2022-12-07T09:00:37;3.80;99.90
5850;DHT22;2951;47.712;9.400;2022-12-07T09:03:03;3.70;99.90
5850;DHT22;2951;47.712;9.400;2022-12-07T09:05:30;3.70;99.90
5850;DHT22;2951;47.712;9.400;2022-12-07T09:07:59;3.80;99.90
5850;DHT22;2951;47.712;9.400;2022-12-07T09:10:30;3.70;99.90
5850;DHT22;2951;47.712;9.400;2022-12-07T09:12:57;3.70;99.90
5850;DHT22;2951;47.712;9.400;2022-12-07T09:15:27;3.70;99.90
5850;DHT22;2951;47.712;9.400;2022-12-07T09:17:54;3.70;99.90
5850;DHT22;2951;47.712;9.400;2022-12-07T09:20:21;3.70;99.90
5850;DHT22;2951;47.712;9.400;2022-12-07T09:22:53;3.80;99.90
5850;DHT22;2951;47.712;9.400;2022-12-07T09:25:19;3.80;99.90
5850;DHT22;2951;47.712;9.400;2022-12-07T09:27:46;3.90;99.90
5850;DHT22;2951;47.712;9.400;2022-12-07T09:30:13;3.80;99.90
5850;DHT22;2951;47.712;9.400;2022-12-07T09:32:39;3.90;99.90
5850;DHT22;2951;47.712;9.400;2022-12-07T09:35:06;3.90;99.90
5850;DHT22;2951;47.712;9.400;2022-12-07T09:37:33;3.90;99.90
5850;DHT22;2951;47.712;9.400;2022-12-07T09:40:02;4.00;99.90
5850;DHT22;2951;47.712;9.400;2022-12-07T09:42:37;4.00;99.90
5850;DHT22;2951;47.712;9.400;2022-12-07T09:45:07;4.10;99.90
5850;DHT22;2951;47.712;9.400;2022-12-07T09:47:34;4.10;99.90
5850;DHT22;2951;47.712;9.400;2022-12-07T09:50:05;4.10;99.90
5850;DHT22;2951;47.712;9.400;2022-12-07T09:52:32;4.10;99.90
5850;DHT22;2951;47.712;9.400;2022-12-07T09:55:08;4.10;99.90
5850;DHT22;2951;47.712;9.400;2022-12-07T09:57:35;4.10;99.90
5850;DHT22;2951;47.712;9.400;2022-12-07T10:00:04;4.20;99.90
5850;DHT22;2951;47.712;9.400;2022-12-07T10:02:37;3.90;99.90
5850;DHT22;2951;47.712;9.400;2022-12-07T10:05:06;4.00;99.90
5850;DHT22;2951;47.712;9.400;2022-12-07T10:07:33;4.10;99.90
5850;DHT22;2951;47.712;9.400;2022-12-07T10:10:02;4.20;99.90
5850;DHT22;2951;47.712;9.400;2022-12-07T10:12:29;4.20;99.90
5850;DHT22;2951;47.712;9.400;2022-12-07T10:14:57;4.30;99.90
5850;DHT22;2951;47.712;9.400;2022-12-07T10:22:35;4.40;99.90
5850;DHT22;2951;47.712;9.400;2022-12-07T10:25:07;4.30;99.90
5850;DHT22;2951;47.712;9.400;2022-12-07T10:27:34;4.30;99.90
5850;DHT22;2951;47.712;9.400;2022-12-07T10:30:01;4.30;99.90
5850;DHT22;2951;47.712;9.400;2022-12-07T10:32:36;4.40;99.90
5850;DHT22;2951;47.712;9.400;2022-12-07T10:37:49;4.60;99.90
5850;DHT22;2951;47.712;9.400;2022-12-07T10:40:29;4.60;99.90
5850;DHT22;2951;47.712;9.400;2022-12-07T10:43:00;4.70;99.90
5850;DHT22;2951;47.712;9.400;2022-12-07T10:45:26;4.80;99.90
5850;DHT22;2951;47.712;9.400;2022-12-07T10:48:06;4.80;99.90
5850;DHT22;2951;47.712;9.400;2022-12-07T10:50:45;4.90;99.90
5850;DHT22;2951;47.712;9.400;2022-12-07T10:58:19;4.80;99.90
5850;DHT22;2951;47.712;9.400;2022-12-07T11:06:14;4.90;99.90
5850;DHT22;2951;47.712;9.400;2022-12-07T11:11:14;4.80;99.90
5850;DHT22;2951;47.712;9.400;2022-12-07T11:22:01;4.70;99.90
5850;DHT22;2951;47.712;9.400;2022-12-07T11:32:41;4.50;99.90
5850;DHT22;2951;47.712;9.400;2022-12-07T11:35:24;4.50;99.90
5850;DHT22;2951;47.712;9.400;2022-12-07T11:38:01;4.60;99.90
5850;DHT22;2951;47.712;9.400;2022-12-07T11:40:34;4.70;99.90
5850;DHT22;2951;47.712;9.400;2022-12-07T11:43:25;4.60;99.90
5850;DHT22;2951;47.712;9.400;2022-12-07T11:45:52;4.60;99.90
5850;DHT22;2951;47.712;9.400;2022-12-07T11:48:24;4.40;99.90
5850;DHT22;2951;47.712;9.400;2022-12-07T11:50:52;4.30;99.90
5850;DHT22;2951;47.712;9.400;2022-12-07T11:53:22;4.40;99.90
5850;DHT22;2951;47.712;9.400;2022-12-07T12:01:16;4.40;99.90
5850;DHT22;2951;47.712;9.400;2022-12-07T12:03:47;4.50;99.90
5850;DHT22;2951;47.712;9.400;2022-12-07T12:06:18;4.60;99.90
5850;DHT22;2951;47.712;9.400;2022-12-07T12:08:46;4.70;99.90
5850;DHT22;2951;47.712;9.400;2022-12-07T12:11:49;4.70;99.90
5850;DHT22;2951;47.712;9.400;2022-12-07T12:25:02;4.50;99.90
5850;DHT22;2951;47.712;9.400;2022-12-07T12:27:31;4.50;99.90
5850;DHT22;2951;47.712;9.400;2022-12-07T12:29:59;4.60;99.90
5850;DHT22;2951;47.712;9.400;2022-12-07T12:32:38;4.60;99.90
5850;DHT22;2951;47.712;9.400;2022-12-07T12:35:22;4.60;99.90
5850;DHT22;2951;47.712;9.400;2022-12-07T12:37:53;4.70;99.90
5850;DHT22;2951;47.712;9.400;2022-12-07T12:42:51;4.70;99.90
5850;DHT22;2951;47.712;9.400;2022-12-07T12:45:19;4.70;99.90
5850;DHT22;2951;47.712;9.400;2022-12-07T12:50:20;4.60;99.90
5850;DHT22;2951;47.712;9.400;2022-12-07T12:52:57;4.60;99.90
5850;DHT22;2951;47.712;9.400;2022-12-07T12:55:30;4.60;99.90
5850;DHT22;2951;47.712;9.400;2022-12-07T13:00:46;4.50;99.90
5850;DHT22;2951;47.712;9.400;2022-12-07T13:03:24;4.60;99.90
5850;DHT22;2951;47.712;9.400;2022-12-07T13:08:40;4.60;99.90
5850;DHT22;2951;47.712;9.400;2022-12-07T13:13:56;4.70;99.90
5850;DHT22;2951;47.712;9.400;2022-12-07T13:16:40;4.70;99.90
5850;DHT22;2951;47.712;9.400;2022-12-07T13:21:53;4.90;99.90
5850;DHT22;2951;47.712;9.400;2022-12-07T13:24:19;4.80;99.90
5850;DHT22;2951;47.712;9.400;2022-12-07T13:26:46;4.80;99.90
5850;DHT22;2951;47.712;9.400;2022-12-07T13:29:17;4.80;99.90
5850;DHT22;2951;47.712;9.400;2022-12-07T13:31:51;4.80;99.90
5850;DHT22;2951;47.712;9.400;2022-12-07T13:34:37;4.80;99.90
5850;DHT22;2951;47.712;9.400;2022-12-07T13:37:11;4.70;99.90
5850;DHT22;2951;47.712;9.400;2022-12-07T13:39:47;4.80;99.90
5850;DHT22;2951;47.712;9.400;2022-12-07T13:42:19;4.90;99.90
5850;DHT22;2951;47.712;9.400;2022-12-07T13:44:46;4.90;99.90
5850;DHT22;2951;47.712;9.400;2022-12-07T13:47:14;4.90;99.90
5850;DHT22;2951;47.712;9.400;2022-12-07T13:49:50;4.90;99.90
5850;DHT22;2951;47.712;9.400;2022-12-07T13:52:26;5.00;99.90
5850;DHT22;2951;47.712;9.400;2022-12-07T13:57:24;4.90;99.90
5850;DHT22;2951;47.712;9.400;2022-12-07T13:59:51;4.80;99.90
5850;DHT22;2951;47.712;9.400;2022-12-07T14:05:12;4.80;99.90
5850;DHT22;2951;47.712;9.400;2022-12-07T14:10:26;4.80;99.90
5850;DHT22;2951;47.712;9.400;2022-12-07T14:12:53;4.70;99.90
5850;DHT22;2951;47.712;9.400;2022-12-07T14:15:24;4.70;99.90
5850;DHT22;2951;47.712;9.400;2022-12-07T14:17:54;4.70;99.90
5850;DHT22;2951;47.712;9.400;2022-12-07T14:20:31;4.80;99.90
5850;DHT22;2951;47.712;9.400;2022-12-07T14:22:58;4.70;99.90
5850;DHT22;2951;47.712;9.400;2022-12-07T14:25:26;4.70;99.90
5850;DHT22;2951;47.712;9.400;2022-12-07T14:27:57;4.80;99.90
5850;DHT22;2951;47.712;9.400;2022-12-07T14:30:25;4.70;99.90
5850;DHT22;2951;47.712;9.400;2022-12-07T14:32:54;4.60;99.90
5850;DHT22;2951;47.712;9.400;2022-12-07T14:35:21;4.60;99.90
5850;DHT22;2951;47.712;9.400;2022-12-07T14:37:48;4.50;99.90
5850;DHT22;2951;47.712;9.400;2022-12-07T14:40:22;4.60;99.90
5850;DHT22;2951;47.712;9.400;2022-12-07T14:42:54;4.60;99.90
5850;DHT22;2951;47.712;9.400;2022-12-07T14:45:22;4.50;99.90
5850;DHT22;2951;47.712;9.400;2022-12-07T14:47:48;4.50;99.90
5850;DHT22;2951;47.712;9.400;2022-12-07T14:50:36;4.40;99.90
5850;DHT22;2951;47.712;9.400;2022-12-07T14:53:08;4.40;99.90
5850;DHT22;2951;47.712;9.400;2022-12-07T14:55:52;4.40;99.90
5850;DHT22;2951;47.712;9.400;2022-12-07T14:58:18;4.40;99.90
5850;DHT22;2951;47.712;9.400;2022-12-07T15:00:45;4.40;99.90
5850;DHT22;2951;47.712;9.400;2022-12-07T15:03:13;4.40;99.90
5850;DHT22;2951;47.712;9.400;2022-12-07T15:05:40;4.40;99.90
5850;DHT22;2951;47.712;9.400;2022-12-07T15:08:11;4.40;99.90
5850;DHT22;2951;47.712;9.400;2022-12-07T15:10:38;4.30;99.90
5850;DHT22;2951;47.712;9.400;2022-12-07T15:13:06;4.30;99.90
5850;DHT22;2951;47.712;9.400;2022-12-07T15:15:52;4.30;99.90
5850;DHT22;2951;47.712;9.400;2022-12-07T15:18:20;4.30;99.90
5850;DHT22;2951;47.712;9.400;2022-12-07T15:20:47;4.30;99.90
5850;DHT22;2951;47.712;9.400;2022-12-07T15:23:14;4.30;99.90
5850;DHT22;2951;47.712;9.400;2022-12-07T15:25:42;4.30;99.90
5850;DHT22;2951;47.712;9.400;2022-12-07T15:28:08;4.20;99.90
5850;DHT22;2951;47.712;9.400;2022-12-07T15:30:39;4.20;99.90
5850;DHT22;2951;47.712;9.400;2022-12-07T15:33:05;4.20;99.90
5850;DHT22;2951;47.712;9.400;2022-12-07T15:35:32;4.20;99.90
5850;DHT22;2951;47.712;9.400;2022-12-07T15:37:59;4.20;99.90
5850;DHT22;2951;47.712;9.400;2022-12-07T15:40:25;4.10;99.90
5850;DHT22;2951;47.712;9.400;2022-12-07T15:42:52;4.10;99.90
5850;DHT22;2951;47.712;9.400;2022-12-07T15:45:19;4.10;99.90
5850;DHT22;2951;47.712;9.400;2022-12-07T15:47:45;4.10;99.90
5850;DHT22;2951;47.712;9.400;2022-12-07T15:50:32;4.10;99.90
5850;DHT22;2951;47.712;9.400;2022-12-07T15:52:59;4.00;99.90
5850;DHT22;2951;47.712;9.400;2022-12-07T15:55:26;3.90;99.90
5850;DHT22;2951;47.712;9.400;2022-12-07T15:57:52;3.90;99.90
5850;DHT22;2951;47.712;9.400;2022-12-07T16:00:19;3.90;99.90
5850;DHT22;2951;47.712;9.400;2022-12-07T16:02:46;3.90;99.90
5850;DHT22;2951;47.712;9.400;2022-12-07T16:05:12;3.90;99.90
5850;DHT22;2951;47.712;9.400;2022-12-07T16:07:39;3.80;99.90
5850;DHT22;2951;47.712;9.400;2022-12-07T16:10:06;3.80;99.90
5850;DHT22;2951;47.712;9.400;2022-12-07T16:12:33;3.80;99.90
5850;DHT22;2951;47.712;9.400;2022-12-07T16:14:59;3.70;99.90
5850;DHT22;2951;47.712;9.400;2022-12-07T16:17:27;3.70;99.90
5850;DHT22;2951;47.712;9.400;2022-12-07T16:19:53;3.70;99.90
5850;DHT22;2951;47.712;9.400;2022-12-07T16:22:20;3.70;99.90
5850;DHT22;2951;47.712;9.400;2022-12-07T16:24:46;3.60;99.90
5850;DHT22;2951;47.712;9.400;2022-12-07T16:27:13;3.60;99.90
5850;DHT22;2951;47.712;9.400;2022-12-07T16:29:40;3.50;99.90
5850;DHT22;2951;47.712;9.400;2022-12-07T16:32:06;3.50;99.90
5850;DHT22;2951;47.712;9.400;2022-12-07T16:34:33;3.50;99.90
5850;DHT22;2951;47.712;9.400;2022-12-07T16:37:00;3.50;99.90
5850;DHT22;2951;47.712;9.400;2022-12-07T16:39:29;3.40;99.90
5850;DHT22;2951;47.712;9.400;2022-12-07T16:41:56;3.40;99.90
5850;DHT22;2951;47.712;9.400;2022-12-07T16:44:23;3.30;99.90
5850;DHT22;2951;47.712;9.400;2022-12-07T16:46:50;3.30;99.90
5850;DHT22;2951;47.712;9.400;2022-12-07T16:49:17;3.30;99.90
5850;DHT22;2951;47.712;9.400;2022-12-07T16:51:44;3.20;99.90
5850;DHT22;2951;47.712;9.400;2022-12-07T16:54:12;3.20;99.90
5850;DHT22;2951;47.712;9.400;2022-12-07T16:56:39;3.10;99.90
5850;DHT22;2951;47.712;9.400;2022-12-07T16:59:06;3.10;99.90
5850;DHT22;2951;47.712;9.400;2022-12-07T17:01:32;3.10;99.90
5850;DHT22;2951;47.712;9.400;2022-12-07T17:04:00;3.10;99.90
5850;DHT22;2951;47.712;9.400;2022-12-07T17:06:27;3.00;99.90
5850;DHT22;2951;47.712;9.400;2022-12-07T17:08:55;3.00;99.90
5850;DHT22;2951;47.712;9.400;2022-12-07T17:11:24;3.10;99.90
5850;DHT22;2951;47.712;9.400;2022-12-07T17:13:51;3.10;99.90
5850;DHT22;2951;47.712;9.400;2022-12-07T17:16:36;3.10;99.90
5850;DHT22;2951;47.712;9.400;2022-12-07T17:19:03;3.10;99.90
5850;DHT22;2951;47.712;9.400;2022-12-07T17:21:31;3.00;99.90
5850;DHT22;2951;47.712;9.400;2022-12-07T17:23:59;3.00;99.90
5850;DHT22;2951;47.712;9.400;2022-12-07T17:26:26;3.00;99.90
5850;DHT22;2951;47.712;9.400;2022-12-07T17:28:59;3.10;99.90
5850;DHT22;2951;47.712;9.400;2022-12-07T17:31:25;3.10;99.90
5850;DHT22;2951;47.712;9.400;2022-12-07T17:33:52;3.10;99.90
5850;DHT22;2951;47.712;9.400;2022-12-07T17:36:20;3.10;99.90
5850;DHT22;2951;47.712;9.400;2022-12-07T17:38:48;3.10;99.90
5850;DHT22;2951;47.712;9.400;2022-12-07T17:41:19;3.10;99.90
5850;DHT22;2951;47.712;9.400;2022-12-07T17:44:06;3.00;99.90
5850;DHT22;2951;47.712;9.400;2022-12-07T17:46:33;3.10;99.90
5850;DHT22;2951;47.712;9.400;2022-12-07T17:49:00;3.00;99.90
5850;DHT22;2951;47.712;9.400;2022-12-07T17:51:27;3.00;99.90
5850;DHT22;2951;47.712;9.400;2022-12-07T17:54:12;3.00;99.90
5850;DHT22;2951;47.712;9.400;2022-12-07T17:56:39;3.00;99.90
5850;DHT22;2951;47.712;9.400;2022-12-07T17:59:06;2.90;99.90
5850;DHT22;2951;47.712;9.400;2022-12-07T18:01:32;2.90;99.90
5850;DHT22;2951;47.712;9.400;2022-12-07T18:04:00;2.90;99.90
5850;DHT22;2951;47.712;9.400;2022-12-07T18:06:27;2.90;99.90
5850;DHT22;2951;47.712;9.400;2022-12-07T18:08:54;2.90;99.90
5850;DHT22;2951;47.712;9.400;2022-12-07T18:11:20;2.90;99.90
5850;DHT22;2951;47.712;9.400;2022-12-07T18:13:47;2.90;99.90